sensor_id;sensor_type;location;lat;lon;timestamp;temperature;humidity
9371;DHT22;4725;48.384;8.984;2023-03-30T00:01:35;13.10;99.90
9371;DHT22;4725;48.384;8.984;2023-03-30T00:06:29;13.00;99.90
9371;DHT22;4725;48.384;8.984;2023-03-30T00:08:56;12.90;99.90
9371;DHT22;4725;48.384;8.984;2023-03-30T00:11:25;12.80;99.90
9371;DHT22;4725;48.384;8.984;2023-03-30T00:13:52;12.70;99.90
9371;DHT22;4725;48.384;8.984;2023-03-30T00:16:20;12.60;99.90
9371;DHT22;4725;48.384;8.984;2023-03-30T00:18:47;12.50;99.90
9371;DHT22;4725;48.384;8.984;2023-03-30T00:21:15;12.40;99.90
9371;DHT22;4725;48.384;8.984;2023-03-30T00:23:42;12.30;99.90
9371;DHT22;4725;48.384;8.984;2023-03-30T00:26:12;12.20;99.90
9371;DHT22;4725;48.384;8.984;2023-03-30T00:28:41;12.10;99.90
9371;DHT22;4725;48.384;8.984;2023-03-30T00:31:07;12.10;99.90
9371;DHT22;4725;48.384;8.984;2023-03-30T00:33:35;12.00;99.90
9371;DHT22;4725;48.384;8.984;2023-03-30T00:36:03;12.20;99.90
9371;DHT22;4725;48.384;8.984;2023-03-30T00:38:30;12.30;99.90
9371;DHT22;4725;48.384;8.984;2023-03-30T00:40:58;12.50;99.90
9371;DHT22;4725;48.384;8.984;2023-03-30T00:43:26;12.60;99.90
9371;DHT22;4725;48.384;8.984;2023-03-30T00:45:56;12.50;99.90
9371;DHT22;4725;48.384;8.984;2023-03-30T00:48:25;12.50;99.90
9371;DHT22;4725;48.384;8.984;2023-03-30T00:50:55;12.60;99.90
9371;DHT22;4725;48.384;8.984;2023-03-30T00:53:27;12.80;99.90
9371;DHT22;4725;48.384;8.984;2023-03-30T00:55:56;13.20;99.90
9371;DHT22;4725;48.384;8.984;2023-03-30T00:58:24;13.30;99.90
9371;DHT22;4725;48.384;8.984;2023-03-30T01:00:51;13.40;99.90
9371;DHT22;4725;48.384;8.984;2023-03-30T01:03:23;13.60;99.90
9371;DHT22;4725;48.384;8.984;2023-03-30T01:05:53;13.60;99.90
9371;DHT22;4725;48.384;8.984;2023-03-30T01:08:20;13.70;99.90
9371;DHT22;4725;48.384;8.984;2023-03-30T01:10:49;13.60;99.90
9371;DHT22;4725;48.384;8.984;2023-03-30T01:13:17;13.50;99.90
9371;DHT22;4725;48.384;8.984;2023-03-30T01:15:55;13.30;99.90
9371;DHT22;4725;48.384;8.984;2023-03-30T01:18:33;13.20;99.90
9371;DHT22;4725;48.384;8.984;2023-03-30T01:21:34;13.20;99.90
9371;DHT22;4725;48.384;8.984;2023-03-30T01:27:16;12.70;99.90
9371;DHT22;4725;48.384;8.984;2023-03-30T01:29:55;12.50;99.90
9371;DHT22;4725;48.384;8.984;2023-03-30T01:33:08;12.40;99.90
9371;DHT22;4725;48.384;8.984;2023-03-30T01:36:13;12.20;99.90
9371;DHT22;4725;48.384;8.984;2023-03-30T01:39:09;12.10;99.90
9371;DHT22;4725;48.384;8.984;2023-03-30T01:41:43;12.10;99.90
9371;DHT22;4725;48.384;8.984;2023-03-30T01:44:18;11.90;99.90
9371;DHT22;4725;48.384;8.984;2023-03-30T01:46:51;11.50;99.90
9371;DHT22;4725;48.384;8.984;2023-03-30T01:49:25;11.40;99.90
9371;DHT22;4725;48.384;8.984;2023-03-30T01:52:00;11.30;99.90
9371;DHT22;4725;48.384;8.984;2023-03-30T01:54:32;11.20;99.90
9371;DHT22;4725;48.384;8.984;2023-03-30T01:57:03;11.10;99.90
9371;DHT22;4725;48.384;8.984;2023-03-30T01:59:35;11.20;99.90
9371;DHT22;4725;48.384;8.984;2023-03-30T02:02:03;11.10;99.90
9371;DHT22;4725;48.384;8.984;2023-03-30T02:04:33;11.10;99.90
9371;DHT22;4725;48.384;8.984;2023-03-30T02:07:07;11.00;99.90
9371;DHT22;4725;48.384;8.984;2023-03-30T02:09:38;11.00;99.90
9371;DHT22;4725;48.384;8.984;2023-03-30T02:12:08;11.10;99.90
9371;DHT22;4725;48.384;8.984;2023-03-30T02:14:38;11.10;99.90
9371;DHT22;4725;48.384;8.984;2023-03-30T02:17:09;11.10;99.90
9371;DHT22;4725;48.384;8.984;2023-03-30T02:19:39;11.30;99.90
9371;DHT22;4725;48.384;8.984;2023-03-30T02:22:06;11.20;99.90
9371;DHT22;4725;48.384;8.984;2023-03-30T02:24:35;11.20;99.90
9371;DHT22;4725;48.384;8.984;2023-03-30T02:27:03;11.20;99.90
9371;DHT22;4725;48.384;8.984;2023-03-30T02:29:32;11.30;99.90
9371;DHT22;4725;48.384;8.984;2023-03-30T02:32:00;11.40;99.90
9371;DHT22;4725;48.384;8.984;2023-03-30T02:34:42;14.70;99.90
9371;DHT22;4725;48.384;8.984;2023-03-30T02:37:21;11.40;99.90
9371;DHT22;4725;48.384;8.984;2023-03-30T02:40:04;11.50;99.90
9371;DHT22;4725;48.384;8.984;2023-03-30T02:42:49;11.50;99.90
9371;DHT22;4725;48.384;8.984;2023-03-30T02:45:23;11.40;99.90
9371;DHT22;4725;48.384;8.984;2023-03-30T02:48:07;11.40;99.90
9371;DHT22;4725;48.384;8.984;2023-03-30T02:50:41;11.40;99.90
9371;DHT22;4725;48.384;8.984;2023-03-30T02:53:14;11.30;99.90
9371;DHT22;4725;48.384;8.984;2023-03-30T02:55:53;11.40;99.90
9371;DHT22;4725;48.384;8.984;2023-03-30T02:58:32;11.30;99.90
9371;DHT22;4725;48.384;8.984;2023-03-30T03:01:02;11.20;99.90
9371;DHT22;4725;48.384;8.984;2023-03-30T03:03:34;11.30;99.90
9371;DHT22;4725;48.384;8.984;2023-03-30T03:06:02;11.20;99.90
9371;DHT22;4725;48.384;8.984;2023-03-30T03:08:33;11.30;99.90
9371;DHT22;4725;48.384;8.984;2023-03-30T03:11:02;11.30;99.90
9371;DHT22;4725;48.384;8.984;2023-03-30T03:13:29;11.40;99.90
9371;DHT22;4725;48.384;8.984;2023-03-30T03:15:56;11.30;99.90
9371;DHT22;4725;48.384;8.984;2023-03-30T03:18:25;11.20;99.90
9371;DHT22;4725;48.384;8.984;2023-03-30T03:20:52;11.20;99.90
9371;DHT22;4725;48.384;8.984;2023-03-30T03:23:19;11.20;99.90
9371;DHT22;4725;48.384;8.984;2023-03-30T03:25:46;11.10;99.90
9371;DHT22;4725;48.384;8.984;2023-03-30T03:28:15;11.00;99.90
9371;DHT22;4725;48.384;8.984;2023-03-30T03:30:42;11.10;99.90
9371;DHT22;4725;48.384;8.984;2023-03-30T03:33:08;11.30;99.90
9371;DHT22;4725;48.384;8.984;2023-03-30T03:35:35;11.40;99.90
9371;DHT22;4725;48.384;8.984;2023-03-30T03:38:03;11.40;99.90
9371;DHT22;4725;48.384;8.984;2023-03-30T03:40:30;11.40;99.90
9371;DHT22;4725;48.384;8.984;2023-03-30T03:42:57;11.60;99.90
9371;DHT22;4725;48.384;8.984;2023-03-30T03:45:26;11.50;99.90
9371;DHT22;4725;48.384;8.984;2023-03-30T03:47:53;11.60;99.90
9371;DHT22;4725;48.384;8.984;2023-03-30T03:50:20;11.60;99.90
9371;DHT22;4725;48.384;8.984;2023-03-30T03:52:47;11.60;99.90
9371;DHT22;4725;48.384;8.984;2023-03-30T03:55:14;11.60;99.90
9371;DHT22;4725;48.384;8.984;2023-03-30T03:57:41;11.50;99.90
9371;DHT22;4725;48.384;8.984;2023-03-30T04:00:10;11.40;99.90
9371;DHT22;4725;48.384;8.984;2023-03-30T04:02:43;11.20;99.90
9371;DHT22;4725;48.384;8.984;2023-03-30T04:05:10;11.20;99.90
9371;DHT22;4725;48.384;8.984;2023-03-30T04:07:37;11.20;99.90
9371;DHT22;4725;48.384;8.984;2023-03-30T04:10:05;11.10;99.90
9371;DHT22;4725;48.384;8.984;2023-03-30T04:12:33;11.10;99.90
9371;DHT22;4725;48.384;8.984;2023-03-30T04:14:59;11.10;99.90
9371;DHT22;4725;48.384;8.984;2023-03-30T04:17:26;11.10;99.90
9371;DHT22;4725;48.384;8.984;2023-03-30T04:19:54;11.30;99.90
9371;DHT22;4725;48.384;8.984;2023-03-30T04:22:22;11.30;99.90
9371;DHT22;4725;48.384;8.984;2023-03-30T04:24:51;11.40;99.90
9371;DHT22;4725;48.384;8.984;2023-03-30T04:27:18;11.40;99.90
9371;DHT22;4725;48.384;8.984;2023-03-30T04:29:45;11.40;99.90
9371;DHT22;4725;48.384;8.984;2023-03-30T04:32:12;11.40;99.90
9371;DHT22;4725;48.384;8.984;2023-03-30T04:34:45;11.60;99.90
9371;DHT22;4725;48.384;8.984;2023-03-30T04:37:13;11.60;99.90
9371;DHT22;4725;48.384;8.984;2023-03-30T04:39:42;11.60;99.90
9371;DHT22;4725;48.384;8.984;2023-03-30T04:42:10;11.50;99.90
9371;DHT22;4725;48.384;8.984;2023-03-30T04:47:05;11.40;99.90
9371;DHT22;4725;48.384;8.984;2023-03-30T04:49:32;11.50;99.90
9371;DHT22;4725;48.384;8.984;2023-03-30T04:51:59;11.70;99.90
9371;DHT22;4725;48.384;8.984;2023-03-30T04:54:27;12.00;99.90
9371;DHT22;4725;48.384;8.984;2023-03-30T04:56:54;12.00;99.90
9371;DHT22;4725;48.384;8.984;2023-03-30T04:59:21;11.90;99.90
9371;DHT22;4725;48.384;8.984;2023-03-30T05:01:48;11.80;99.90
9371;DHT22;4725;48.384;8.984;2023-03-30T05:04:15;12.00;99.90
9371;DHT22;4725;48.384;8.984;2023-03-30T05:06:41;11.90;99.90
9371;DHT22;4725;48.384;8.984;2023-03-30T05:09:08;11.70;99.90
9371;DHT22;4725;48.384;8.984;2023-03-30T05:11:36;11.70;99.90
9371;DHT22;4725;48.384;8.984;2023-03-30T05:14:04;12.10;99.90
9371;DHT22;4725;48.384;8.984;2023-03-30T05:16:31;12.40;99.90
9371;DHT22;4725;48.384;8.984;2023-03-30T05:18:58;12.30;99.90
9371;DHT22;4725;48.384;8.984;2023-03-30T05:21:25;12.10;99.90
9371;DHT22;4725;48.384;8.984;2023-03-30T05:23:52;11.80;99.90
9371;DHT22;4725;48.384;8.984;2023-03-30T05:26:19;11.60;99.90
9371;DHT22;4725;48.384;8.984;2023-03-30T05:28:47;11.60;99.90
9371;DHT22;4725;48.384;8.984;2023-03-30T05:31:14;11.50;99.90
9371;DHT22;4725;48.384;8.984;2023-03-30T05:33:41;12.00;99.90
9371;DHT22;4725;48.384;8.984;2023-03-30T05:36:09;12.20;99.90
9371;DHT22;4725;48.384;8.984;2023-03-30T05:38:36;12.30;99.90
9371;DHT22;4725;48.384;8.984;2023-03-30T05:41:03;12.30;99.90
9371;DHT22;4725;48.384;8.984;2023-03-30T05:43:31;12.50;99.90
9371;DHT22;4725;48.384;8.984;2023-03-30T05:45:59;12.60;99.90
9371;DHT22;4725;48.384;8.984;2023-03-30T05:48:27;12.50;99.90
9371;DHT22;4725;48.384;8.984;2023-03-30T05:50:54;12.40;99.90
9371;DHT22;4725;48.384;8.984;2023-03-30T05:53:21;12.60;99.90
9371;DHT22;4725;48.384;8.984;2023-03-30T05:55:49;12.70;99.90
9371;DHT22;4725;48.384;8.984;2023-03-30T05:58:16;12.90;99.90
9371;DHT22;4725;48.384;8.984;2023-03-30T06:00:43;12.90;99.90
9371;DHT22;4725;48.384;8.984;2023-03-30T06:03:14;13.00;99.90
9371;DHT22;4725;48.384;8.984;2023-03-30T06:05:41;13.00;99.90
9371;DHT22;4725;48.384;8.984;2023-03-30T06:08:09;13.00;99.90
9371;DHT22;4725;48.384;8.984;2023-03-30T06:10:36;12.90;99.90
9371;DHT22;4725;48.384;8.984;2023-03-30T06:13:03;13.00;99.90
9371;DHT22;4725;48.384;8.984;2023-03-30T06:15:30;12.90;99.90
9371;DHT22;4725;48.384;8.984;2023-03-30T06:17:58;12.90;99.90
9371;DHT22;4725;48.384;8.984;2023-03-30T06:20:29;12.70;99.90
9371;DHT22;4725;48.384;8.984;2023-03-30T06:22:56;12.30;99.90
9371;DHT22;4725;48.384;8.984;2023-03-30T06:25:23;11.90;99.90
9371;DHT22;4725;48.384;8.984;2023-03-30T06:27:50;11.80;99.90
9371;DHT22;4725;48.384;8.984;2023-03-30T06:30:17;11.60;99.90
9371;DHT22;4725;48.384;8.984;2023-03-30T06:32:44;11.40;99.90
9371;DHT22;4725;48.384;8.984;2023-03-30T06:35:11;11.60;99.90
9371;DHT22;4725;48.384;8.984;2023-03-30T06:37:41;11.70;99.90
9371;DHT22;4725;48.384;8.984;2023-03-30T06:40:10;11.90;99.90
9371;DHT22;4725;48.384;8.984;2023-03-30T06:42:38;11.90;99.90
9371;DHT22;4725;48.384;8.984;2023-03-30T06:45:06;11.90;99.90
9371;DHT22;4725;48.384;8.984;2023-03-30T06:47:33;11.80;99.90
9371;DHT22;4725;48.384;8.984;2023-03-30T06:50:00;11.90;99.90
9371;DHT22;4725;48.384;8.984;2023-03-30T06:52:28;11.90;99.90
9371;DHT22;4725;48.384;8.984;2023-03-30T06:54:56;12.20;99.90
9371;DHT22;4725;48.384;8.984;2023-03-30T06:57:23;12.20;99.90
9371;DHT22;4725;48.384;8.984;2023-03-30T06:59:50;12.50;99.90
9371;DHT22;4725;48.384;8.984;2023-03-30T07:02:17;12.80;99.90
9371;DHT22;4725;48.384;8.984;2023-03-30T07:04:44;12.90;99.90
9371;DHT22;4725;48.384;8.984;2023-03-30T07:07:11;12.90;99.90
9371;DHT22;4725;48.384;8.984;2023-03-30T07:09:38;12.90;99.90
9371;DHT22;4725;48.384;8.984;2023-03-30T07:12:06;12.80;99.90
9371;DHT22;4725;48.384;8.984;2023-03-30T07:14:33;12.70;99.90
9371;DHT22;4725;48.384;8.984;2023-03-30T07:17:00;12.60;99.90
9371;DHT22;4725;48.384;8.984;2023-03-30T07:19:27;12.60;99.90
9371;DHT22;4725;48.384;8.984;2023-03-30T07:21:54;12.50;99.90
9371;DHT22;4725;48.384;8.984;2023-03-30T07:24:21;12.50;99.90
9371;DHT22;4725;48.384;8.984;2023-03-30T07:26:48;12.50;99.90
9371;DHT22;4725;48.384;8.984;2023-03-30T07:29:16;12.60;99.90
9371;DHT22;4725;48.384;8.984;2023-03-30T07:31:43;12.70;99.90
9371;DHT22;4725;48.384;8.984;2023-03-30T07:34:10;12.70;99.90
9371;DHT22;4725;48.384;8.984;2023-03-30T07:36:37;12.80;99.90
9371;DHT22;4725;48.384;8.984;2023-03-30T07:39:04;12.80;99.90
9371;DHT22;4725;48.384;8.984;2023-03-30T07:41:32;12.80;99.90
9371;DHT22;4725;48.384;8.984;2023-03-30T07:43:59;12.90;99.90
9371;DHT22;4725;48.384;8.984;2023-03-30T07:46:27;13.10;99.90
9371;DHT22;4725;48.384;8.984;2023-03-30T07:48:54;13.20;99.90
9371;DHT22;4725;48.384;8.984;2023-03-30T07:51:21;13.40;99.90
9371;DHT22;4725;48.384;8.984;2023-03-30T07:53:48;13.60;99.90
9371;DHT22;4725;48.384;8.984;2023-03-30T07:56:15;13.90;99.90
9371;DHT22;4725;48.384;8.984;2023-03-30T07:58:43;13.90;99.90
9371;DHT22;4725;48.384;8.984;2023-03-30T08:01:09;14.00;99.90
9371;DHT22;4725;48.384;8.984;2023-03-30T08:03:39;14.00;99.90
9371;DHT22;4725;48.384;8.984;2023-03-30T08:06:06;13.80;99.90
9371;DHT22;4725;48.384;8.984;2023-03-30T08:08:35;13.70;99.90
9371;DHT22;4725;48.384;8.984;2023-03-30T08:11:05;13.50;99.90
9371;DHT22;4725;48.384;8.984;2023-03-30T08:13:33;13.30;99.90
9371;DHT22;4725;48.384;8.984;2023-03-30T08:16:01;13.10;99.90
9371;DHT22;4725;48.384;8.984;2023-03-30T08:18:28;13.00;99.90
9371;DHT22;4725;48.384;8.984;2023-03-30T08:20:57;13.10;99.90
9371;DHT22;4725;48.384;8.984;2023-03-30T08:23:24;13.00;99.90
9371;DHT22;4725;48.384;8.984;2023-03-30T08:25:54;12.90;99.90
9371;DHT22;4725;48.384;8.984;2023-03-30T08:28:21;13.00;99.90
9371;DHT22;4725;48.384;8.984;2023-03-30T08:30:48;13.00;99.90
9371;DHT22;4725;48.384;8.984;2023-03-30T08:33:15;12.90;99.90
9371;DHT22;4725;48.384;8.984;2023-03-30T08:35:43;12.90;99.90
9371;DHT22;4725;48.384;8.984;2023-03-30T08:38:12;12.90;99.90
9371;DHT22;4725;48.384;8.984;2023-03-30T08:40:42;12.90;99.90
9371;DHT22;4725;48.384;8.984;2023-03-30T08:43:24;12.80;99.90
9371;DHT22;4725;48.384;8.984;2023-03-30T08:45:58;12.60;99.90
9371;DHT22;4725;48.384;8.984;2023-03-30T08:48:27;12.50;99.90
9371;DHT22;4725;48.384;8.984;2023-03-30T08:50:58;12.40;99.90
9371;DHT22;4725;48.384;8.984;2023-03-30T08:53:28;12.30;99.90
9371;DHT22;4725;48.384;8.984;2023-03-30T08:55:59;12.20;99.90
9371;DHT22;4725;48.384;8.984;2023-03-30T08:58:32;12.20;99.90
9371;DHT22;4725;48.384;8.984;2023-03-30T09:01:10;12.10;99.90
9371;DHT22;4725;48.384;8.984;2023-03-30T09:03:43;11.90;99.90
9371;DHT22;4725;48.384;8.984;2023-03-30T09:06:18;11.50;99.90
9371;DHT22;4725;48.384;8.984;2023-03-30T09:08:49;11.40;99.90
9371;DHT22;4725;48.384;8.984;2023-03-30T09:11:23;11.20;99.90
9371;DHT22;4725;48.384;8.984;2023-03-30T09:13:52;11.00;99.90
9371;DHT22;4725;48.384;8.984;2023-03-30T09:16:28;11.00;99.90
9371;DHT22;4725;48.384;8.984;2023-03-30T09:19:00;10.90;99.90
9371;DHT22;4725;48.384;8.984;2023-03-30T09:21:30;10.90;99.90
9371;DHT22;4725;48.384;8.984;2023-03-30T09:24:00;10.80;99.90
9371;DHT22;4725;48.384;8.984;2023-03-30T09:26:38;10.80;99.90
9371;DHT22;4725;48.384;8.984;2023-03-30T09:29:12;10.70;99.90
9371;DHT22;4725;48.384;8.984;2023-03-30T09:31:42;10.70;99.90
9371;DHT22;4725;48.384;8.984;2023-03-30T09:34:18;10.50;99.90
9371;DHT22;4725;48.384;8.984;2023-03-30T09:36:55;10.50;99.90
9371;DHT22;4725;48.384;8.984;2023-03-30T09:39:25;10.50;99.90
9371;DHT22;4725;48.384;8.984;2023-03-30T09:42:10;10.50;99.90
9371;DHT22;4725;48.384;8.984;2023-03-30T09:44:43;10.40;99.90
9371;DHT22;4725;48.384;8.984;2023-03-30T09:47:20;10.50;99.90
9371;DHT22;4725;48.384;8.984;2023-03-30T09:49:54;10.60;99.90
9371;DHT22;4725;48.384;8.984;2023-03-30T09:52:24;10.60;99.90
9371;DHT22;4725;48.384;8.984;2023-03-30T09:54:53;10.80;99.90
9371;DHT22;4725;48.384;8.984;2023-03-30T09:57:25;10.80;99.90
9371;DHT22;4725;48.384;8.984;2023-03-30T09:59:52;10.90;99.90
9371;DHT22;4725;48.384;8.984;2023-03-30T10:02:21;11.00;99.90
9371;DHT22;4725;48.384;8.984;2023-03-30T10:04:57;11.00;99.90
9371;DHT22;4725;48.384;8.984;2023-03-30T10:07:28;11.00;99.90
9371;DHT22;4725;48.384;8.984;2023-03-30T10:09:59;11.00;99.90
9371;DHT22;4725;48.384;8.984;2023-03-30T10:12:27;11.00;99.90
9371;DHT22;4725;48.384;8.984;2023-03-30T10:14:56;11.20;99.90
9371;DHT22;4725;48.384;8.984;2023-03-30T10:17:25;11.20;99.90
9371;DHT22;4725;48.384;8.984;2023-03-30T10:19:53;11.30;99.90
9371;DHT22;4725;48.384;8.984;2023-03-30T10:22:21;11.30;99.90
9371;DHT22;4725;48.384;8.984;2023-03-30T10:24:50;11.30;99.90
9371;DHT22;4725;48.384;8.984;2023-03-30T10:27:23;11.30;99.90
9371;DHT22;4725;48.384;8.984;2023-03-30T10:29:52;11.30;99.90
9371;DHT22;4725;48.384;8.984;2023-03-30T10:32:22;11.30;99.90
9371;DHT22;4725;48.384;8.984;2023-03-30T10:34:53;11.60;99.90
9371;DHT22;4725;48.384;8.984;2023-03-30T10:37:24;11.60;99.90
9371;DHT22;4725;48.384;8.984;2023-03-30T10:39:52;11.70;99.90
9371;DHT22;4725;48.384;8.984;2023-03-30T10:42:24;11.80;99.90
9371;DHT22;4725;48.384;8.984;2023-03-30T10:44:54;11.80;99.90
9371;DHT22;4725;48.384;8.984;2023-03-30T10:47:40;11.80;99.90
9371;DHT22;4725;48.384;8.984;2023-03-30T10:50:20;11.80;99.90
9371;DHT22;4725;48.384;8.984;2023-03-30T10:52:57;11.70;99.90
9371;DHT22;4725;48.384;8.984;2023-03-30T10:55:33;11.80;99.90
9371;DHT22;4725;48.384;8.984;2023-03-30T10:58:16;11.80;99.90
9371;DHT22;4725;48.384;8.984;2023-03-30T11:00:57;11.80;99.90
9371;DHT22;4725;48.384;8.984;2023-03-30T11:03:28;11.80;99.90
9371;DHT22;4725;48.384;8.984;2023-03-30T11:05:59;12.20;99.90
9371;DHT22;4725;48.384;8.984;2023-03-30T11:08:29;12.30;99.90
9371;DHT22;4725;48.384;8.984;2023-03-30T11:10:58;12.60;99.90
9371;DHT22;4725;48.384;8.984;2023-03-30T11:13:30;12.90;99.90
9371;DHT22;4725;48.384;8.984;2023-03-30T11:16:01;13.70;99.90
9371;DHT22;4725;48.384;8.984;2023-03-30T11:18:35;13.80;99.90
9371;DHT22;4725;48.384;8.984;2023-03-30T11:21:04;13.80;99.90
9371;DHT22;4725;48.384;8.984;2023-03-30T11:23:41;13.90;99.90
9371;DHT22;4725;48.384;8.984;2023-03-30T11:26:10;13.80;99.90
9371;DHT22;4725;48.384;8.984;2023-03-30T11:28:49;13.80;99.90
9371;DHT22;4725;48.384;8.984;2023-03-30T11:31:27;13.60;99.90
9371;DHT22;4725;48.384;8.984;2023-03-30T11:34:03;13.30;99.90
9371;DHT22;4725;48.384;8.984;2023-03-30T11:36:37;13.20;99.90
9371;DHT22;4725;48.384;8.984;2023-03-30T11:39:10;13.10;99.90
9371;DHT22;4725;48.384;8.984;2023-03-30T11:41:42;13.10;99.90
9371;DHT22;4725;48.384;8.984;2023-03-30T11:44:11;13.00;99.90
9371;DHT22;4725;48.384;8.984;2023-03-30T11:46:41;12.70;99.90
9371;DHT22;4725;48.384;8.984;2023-03-30T11:49:34;12.50;99.90
9371;DHT22;4725;48.384;8.984;2023-03-30T11:52:12;12.20;99.90
9371;DHT22;4725;48.384;8.984;2023-03-30T11:54:59;11.90;99.90
9371;DHT22;4725;48.384;8.984;2023-03-30T11:57:36;11.90;99.90
9371;DHT22;4725;48.384;8.984;2023-03-30T12:00:25;11.80;99.90
9371;DHT22;4725;48.384;8.984;2023-03-30T12:03:03;11.70;99.90
9371;DHT22;4725;48.384;8.984;2023-03-30T12:05:34;11.70;99.90
9371;DHT22;4725;48.384;8.984;2023-03-30T12:08:11;11.70;99.90
9371;DHT22;4725;48.384;8.984;2023-03-30T12:10:43;11.70;99.90
9371;DHT22;4725;48.384;8.984;2023-03-30T12:13:14;11.60;99.90
9371;DHT22;4725;48.384;8.984;2023-03-30T12:15:49;11.50;99.90
9371;DHT22;4725;48.384;8.984;2023-03-30T12:18:26;11.50;99.90
9371;DHT22;4725;48.384;8.984;2023-03-30T12:21:09;11.50;99.90
9371;DHT22;4725;48.384;8.984;2023-03-30T12:23:44;11.50;99.90
9371;DHT22;4725;48.384;8.984;2023-03-30T12:26:23;11.80;99.90
9371;DHT22;4725;48.384;8.984;2023-03-30T12:28:57;11.80;99.90
9371;DHT22;4725;48.384;8.984;2023-03-30T12:32:01;11.80;99.90
9371;DHT22;4725;48.384;8.984;2023-03-30T12:34:31;11.80;99.90
9371;DHT22;4725;48.384;8.984;2023-03-30T12:37:05;12.10;99.90
9371;DHT22;4725;48.384;8.984;2023-03-30T12:39:39;12.30;99.90
9371;DHT22;4725;48.384;8.984;2023-03-30T12:42:19;12.30;99.90
9371;DHT22;4725;48.384;8.984;2023-03-30T12:45:14;12.50;99.90
9371;DHT22;4725;48.384;8.984;2023-03-30T12:48:25;12.60;99.90
9371;DHT22;4725;48.384;8.984;2023-03-30T12:51:02;13.60;99.90
9371;DHT22;4725;48.384;8.984;2023-03-30T12:53:51;13.60;99.90
9371;DHT22;4725;48.384;8.984;2023-03-30T12:56:29;13.40;99.90
9371;DHT22;4725;48.384;8.984;2023-03-30T12:59:17;13.50;99.90
9371;DHT22;4725;48.384;8.984;2023-03-30T13:02:02;14.40;99.90
9371;DHT22;4725;48.384;8.984;2023-03-30T13:04:36;14.00;99.90
9371;DHT22;4725;48.384;8.984;2023-03-30T13:07:05;14.30;99.90
9371;DHT22;4725;48.384;8.984;2023-03-30T13:09:50;14.30;99.90
9371;DHT22;4725;48.384;8.984;2023-03-30T13:12:31;14.30;99.90
9371;DHT22;4725;48.384;8.984;2023-03-30T13:15:00;14.50;99.90
9371;DHT22;4725;48.384;8.984;2023-03-30T13:17:46;14.50;99.90
9371;DHT22;4725;48.384;8.984;2023-03-30T13:20:18;15.10;99.90
9371;DHT22;4725;48.384;8.984;2023-03-30T13:22:57;16.00;99.90
9371;DHT22;4725;48.384;8.984;2023-03-30T13:25:36;15.90;99.90
9371;DHT22;4725;48.384;8.984;2023-03-30T13:28:34;15.50;99.90
9371;DHT22;4725;48.384;8.984;2023-03-30T13:31:09;16.00;99.90
9371;DHT22;4725;48.384;8.984;2023-03-30T13:33:47;16.30;99.90
9371;DHT22;4725;48.384;8.984;2023-03-30T13:36:17;16.80;99.90
9371;DHT22;4725;48.384;8.984;2023-03-30T13:39:03;16.50;99.90
9371;DHT22;4725;48.384;8.984;2023-03-30T13:41:39;16.80;99.90
9371;DHT22;4725;48.384;8.984;2023-03-30T13:44:37;16.80;99.90
9371;DHT22;4725;48.384;8.984;2023-03-30T13:47:26;17.30;99.90
9371;DHT22;4725;48.384;8.984;2023-03-30T13:49:57;17.40;99.90
9371;DHT22;4725;48.384;8.984;2023-03-30T13:52:31;17.40;99.90
9371;DHT22;4725;48.384;8.984;2023-03-30T13:55:00;17.50;99.90
9371;DHT22;4725;48.384;8.984;2023-03-30T13:57:32;17.40;99.90
9371;DHT22;4725;48.384;8.984;2023-03-30T14:00:04;18.60;99.90
9371;DHT22;4725;48.384;8.984;2023-03-30T14:02:33;18.40;99.90
9371;DHT22;4725;48.384;8.984;2023-03-30T14:05:11;18.40;99.90
9371;DHT22;4725;48.384;8.984;2023-03-30T14:07:41;18.40;99.90
9371;DHT22;4725;48.384;8.984;2023-03-30T14:10:13;17.40;99.90
9371;DHT22;4725;48.384;8.984;2023-03-30T14:12:42;16.30;99.90
9371;DHT22;4725;48.384;8.984;2023-03-30T14:15:17;17.20;99.90
9371;DHT22;4725;48.384;8.984;2023-03-30T14:17:47;17.00;99.90
9371;DHT22;4725;48.384;8.984;2023-03-30T14:20:24;17.30;99.90
9371;DHT22;4725;48.384;8.984;2023-03-30T14:22:55;16.90;99.90
9371;DHT22;4725;48.384;8.984;2023-03-30T14:25:26;15.90;99.90
9371;DHT22;4725;48.384;8.984;2023-03-30T14:27:55;15.70;99.90
9371;DHT22;4725;48.384;8.984;2023-03-30T14:30:24;15.10;99.90
9371;DHT22;4725;48.384;8.984;2023-03-30T14:33:04;15.10;99.90
9371;DHT22;4725;48.384;8.984;2023-03-30T14:35:31;14.90;99.90
9371;DHT22;4725;48.384;8.984;2023-03-30T14:38:00;14.90;99.90
9371;DHT22;4725;48.384;8.984;2023-03-30T14:40:27;15.10;99.90
9371;DHT22;4725;48.384;8.984;2023-03-30T14:42:54;15.10;99.90
9371;DHT22;4725;48.384;8.984;2023-03-30T14:45:21;14.70;99.90
9371;DHT22;4725;48.384;8.984;2023-03-30T14:47:48;14.20;99.90
9371;DHT22;4725;48.384;8.984;2023-03-30T14:50:16;14.20;99.90
9371;DHT22;4725;48.384;8.984;2023-03-30T14:52:45;13.90;99.90
9371;DHT22;4725;48.384;8.984;2023-03-30T14:55:17;13.80;99.90
9371;DHT22;4725;48.384;8.984;2023-03-30T14:57:45;13.80;99.90
9371;DHT22;4725;48.384;8.984;2023-03-30T15:00:16;13.70;99.90
9371;DHT22;4725;48.384;8.984;2023-03-30T15:02:45;13.40;99.90
9371;DHT22;4725;48.384;8.984;2023-03-30T15:05:15;13.30;99.90
9371;DHT22;4725;48.384;8.984;2023-03-30T15:07:45;13.30;99.90
9371;DHT22;4725;48.384;8.984;2023-03-30T15:10:22;13.50;99.90
9371;DHT22;4725;48.384;8.984;2023-03-30T15:12:51;14.40;99.90
9371;DHT22;4725;48.384;8.984;2023-03-30T15:15:23;14.80;99.90
9371;DHT22;4725;48.384;8.984;2023-03-30T15:17:51;14.80;99.90
9371;DHT22;4725;48.384;8.984;2023-03-30T15:20:18;15.60;99.90
9371;DHT22;4725;48.384;8.984;2023-03-30T15:22:47;15.60;99.90
9371;DHT22;4725;48.384;8.984;2023-03-30T15:25:17;15.50;99.90
9371;DHT22;4725;48.384;8.984;2023-03-30T15:27:51;15.50;99.90
9371;DHT22;4725;48.384;8.984;2023-03-30T15:30:27;15.60;99.90
9371;DHT22;4725;48.384;8.984;2023-03-30T15:32:55;16.10;99.90
9371;DHT22;4725;48.384;8.984;2023-03-30T15:35:25;16.50;99.90
9371;DHT22;4725;48.384;8.984;2023-03-30T15:37:54;16.60;99.90
9371;DHT22;4725;48.384;8.984;2023-03-30T15:40:39;16.70;99.90
9371;DHT22;4725;48.384;8.984;2023-03-30T15:43:18;16.50;99.90
9371;DHT22;4725;48.384;8.984;2023-03-30T15:45:48;16.80;99.90
9371;DHT22;4725;48.384;8.984;2023-03-30T15:48:18;16.60;99.90
9371;DHT22;4725;48.384;8.984;2023-03-30T15:50:50;16.30;99.90
9371;DHT22;4725;48.384;8.984;2023-03-30T15:53:21;16.10;99.90
9371;DHT22;4725;48.384;8.984;2023-03-30T15:55:55;16.00;99.90
9371;DHT22;4725;48.384;8.984;2023-03-30T15:58:24;16.00;99.90
9371;DHT22;4725;48.384;8.984;2023-03-30T16:00:53;15.70;99.90
9371;DHT22;4725;48.384;8.984;2023-03-30T16:03:35;15.60;99.90
9371;DHT22;4725;48.384;8.984;2023-03-30T16:06:04;15.40;99.90
9371;DHT22;4725;48.384;8.984;2023-03-30T16:08:31;15.80;99.90
9371;DHT22;4725;48.384;8.984;2023-03-30T16:10:58;15.50;99.90
9371;DHT22;4725;48.384;8.984;2023-03-30T16:13:26;15.40;99.90
9371;DHT22;4725;48.384;8.984;2023-03-30T16:15:53;15.60;99.90
9371;DHT22;4725;48.384;8.984;2023-03-30T16:18:21;15.70;99.90
9371;DHT22;4725;48.384;8.984;2023-03-30T16:20:48;14.90;99.90
9371;DHT22;4725;48.384;8.984;2023-03-30T16:23:15;14.40;99.90
9371;DHT22;4725;48.384;8.984;2023-03-30T16:25:42;14.00;99.90
9371;DHT22;4725;48.384;8.984;2023-03-30T16:28:13;14.10;99.90
9371;DHT22;4725;48.384;8.984;2023-03-30T16:30:43;14.10;99.90
9371;DHT22;4725;48.384;8.984;2023-03-30T16:33:11;14.00;99.90
9371;DHT22;4725;48.384;8.984;2023-03-30T16:35:38;13.40;99.90
9371;DHT22;4725;48.384;8.984;2023-03-30T16:38:05;13.30;99.90